Time;durP1;ratioP1;P1;durP2;ratioP2;P2;SDS_P1;SDS_P2;PMS_P1;PMS_P2;Temp;Humidity;BMP_temperature;BMP_pressure;BME280_temperature;BME280_humidity;BME280_pressure;Samples;Min_cycle;Max_cycle;Signal;HPM_P1;HPM_P2
2021/10/12 00:01:00;;;;;;;66.15;35.15;;;;;;;8.22;100.00;99208.30;4479164;78;28456;-80
2021/10/12 00:07:01;;;;;;;77.95;39.03;;;;;;;8.17;100.00;99209.96;4478669;78;28476;-81
2021/10/12 00:13:03;;;;;;;82.78;40.52;;;;;;;8.07;100.00;99203.72;4467007;78;28441;-83
2021/10/12 00:19:05;;;;;;;78.17;36.95;;;;;;;8.03;100.00;99195.81;4476794;78;28516;-81
2021/10/12 00:25:08;;;;;;;76.70;37.80;;;;;;;7.99;100.00;99190.56;4485826;78;28489;-81
2021/10/12 00:31:09;;;;;;;83.27;41.65;;;;;;;7.99;100.00;99186.55;4474195;78;28485;-84
2021/10/12 00:37:12;;;;;;;83.82;40.35;;;;;;;7.98;100.00;99187.08;4500195;78;28472;-83
2021/10/12 00:43:14;;;;;;;76.72;36.77;;;;;;;7.94;100.00;99184.49;4493056;77;28493;-82
2021/10/12 00:49:15;;;;;;;75.37;36.23;;;;;;;7.92;100.00;99179.88;4467218;78;28485;-83
2021/10/12 00:55:17;;;;;;;71.75;37.10;;;;;;;7.92;100.00;99178.03;4481549;78;28489;-82
2021/10/12 01:01:20;;;;;;;70.20;35.17;;;;;;;7.86;100.00;99170.83;4401222;78;28536;-84
2021/10/12 01:07:22;;;;;;;68.17;33.73;;;;;;;7.87;100.00;99167.64;4385072;79;28463;-84
2021/10/12 01:13:25;;;;;;;71.12;35.60;;;;;;;7.80;100.00;99163.63;4382513;79;28586;-83
2021/10/12 01:19:27;;;;;;;68.50;35.60;;;;;;;7.81;100.00;99161.28;4384346;79;28505;-83
2021/10/12 01:25:29;;;;;;;66.33;34.23;;;;;;;7.85;100.00;99150.95;4374018;79;28470;-84
2021/10/12 01:31:30;;;;;;;66.20;32.98;;;;;;;7.83;100.00;99155.19;4403633;79;28522;-82
2021/10/12 01:37:50;;;;;;;65.95;33.15;;;;;;;7.85;100.00;99150.95;4371077;78;28515;-84
2021/10/12 01:43:51;;;;;;;69.85;35.20;;;;;;;7.96;100.00;99143.59;4376623;78;28539;-83
2021/10/12 01:49:53;;;;;;;63.60;33.67;;;;;;;7.98;100.00;99134.03;4377306;79;28550;-84
2021/10/12 01:55:55;;;;;;;60.78;31.12;;;;;;;7.95;100.00;99133.42;4370553;79;28496;-84
2021/10/12 02:02:00;;;;;;;59.30;31.07;;;;;;;8.00;100.00;99134.63;4535193;77;28506;-82
2021/10/12 02:08:03;;;;;;;60.38;30.72;;;;;;;8.11;100.00;99129.14;4543982;76;28491;-81
2021/10/12 02:14:04;;;;;;;70.60;34.98;;;;;;;8.08;100.00;99126.37;4568205;76;28444;-82
2021/10/12 02:20:09;;;;;;;57.67;30.08;;;;;;;8.09;100.00;99109.27;4527015;76;28447;-84
2021/10/12 02:26:11;;;;;;;60.60;29.87;;;;;;;8.05;100.00;99109.40;4522004;76;28458;-85
2021/10/12 02:32:12;;;;;;;60.45;30.17;;;;;;;8.03;100.00;99104.24;4570887;76;28503;-82
2021/10/12 02:38:13;;;;;;;53.45;27.95;;;;;;;8.07;100.00;99094.77;4567231;76;28499;-82
2021/10/12 02:44:15;;;;;;;56.05;27.85;;;;;;;8.08;100.00;99100.42;4547010;76;28552;-82
2021/10/12 02:50:16;;;;;;;49.48;25.27;;;;;;;8.11;100.00;99101.03;4516622;76;28558;-85
2021/10/12 02:56:17;;;;;;;48.95;24.47;;;;;;;8.15;100.00;99104.41;4570497;76;28435;-82
2021/10/12 03:02:19;;;;;;;43.58;22.67;;;;;;;8.06;100.00;99103.00;4572713;76;28495;-82
2021/10/12 03:08:20;;;;;;;46.45;23.55;;;;;;;8.02;100.00;99105.78;4566741;78;28603;-82
2021/10/12 03:14:21;;;;;;;44.33;22.98;;;;;;;8.15;100.00;99101.73;4548057;77;28518;-82
2021/10/12 03:20:23;;;;;;;37.48;18.95;;;;;;;8.07;100.00;99105.48;4561635;76;28524;-82
2021/10/12 03:26:24;;;;;;;35.63;19.42;;;;;;;8.04;100.00;99101.06;4527777;78;28528;-83
2021/10/12 03:32:26;;;;;;;34.45;18.70;;;;;;;7.98;100.00;99093.87;4565360;77;28461;-82
2021/10/12 03:38:28;;;;;;;39.83;20.68;;;;;;;8.03;100.00;99088.71;4568874;76;28445;-82
2021/10/12 03:44:30;;;;;;;35.48;19.15;;;;;;;7.99;100.00;99093.67;4568141;77;28522;-81
2021/10/12 03:50:31;;;;;;;34.13;18.87;;;;;;;7.95;100.00;99088.41;4564622;77;28453;-81
2021/10/12 03:56:32;;;;;;;35.80;19.65;;;;;;;7.92;100.00;99082.99;4550750;77;28514;-82
2021/10/12 04:02:34;;;;;;;39.98;20.90;;;;;;;7.88;100.00;99087.11;4586144;77;28548;-80
2021/10/12 04:08:36;;;;;;;40.15;21.15;;;;;;;7.75;100.00;99085.83;4553003;78;28544;-80
2021/10/12 04:14:37;;;;;;;36.28;18.42;;;;;;;7.77;100.00;99070.38;4544809;78;28477;-80
2021/10/12 04:20:39;;;;;;;29.90;16.05;;;;;;;7.69;100.00;99072.77;4561288;78;28478;-82
2021/10/12 04:26:42;;;;;;;28.85;15.38;;;;;;;7.56;100.00;99065.61;4546417;76;28541;-83
2021/10/12 04:32:44;;;;;;;32.15;16.73;;;;;;;7.59;100.00;99060.36;4533026;76;28465;-82
2021/10/12 04:38:45;;;;;;;31.80;16.55;;;;;;;7.55;100.00;99053.27;4518515;76;28449;-81
2021/10/12 04:44:49;;;;;;;29.75;15.53;;;;;;;7.52;100.00;99041.66;4528164;76;28449;-81
2021/10/12 04:50:51;;;;;;;26.02;14.35;;;;;;;7.56;100.00;99046.88;4511447;76;28559;-83
2021/10/12 04:56:52;;;;;;;26.95;14.90;;;;;;;7.64;100.00;99037.28;4528250;77;28466;-82
2021/10/12 05:02:53;;;;;;;31.33;15.88;;;;;;;7.78;100.00;99043.41;4388721;78;28493;-83
2021/10/12 05:08:55;;;;;;;30.57;17.32;;;;;;;7.83;100.00;99029.89;4372008;79;28460;-81
2021/10/12 05:14:56;;;;;;;30.55;15.45;;;;;;;7.84;100.00;99031.03;4357124;79;28453;-82
2021/10/12 05:20:58;;;;;;;25.45;14.83;;;;;;;8.00;100.00;99021.67;4378230;79;28466;-83
2021/10/12 05:27:00;;;;;;;27.37;14.35;;;;;;;8.03;100.00;99022.58;4390707;79;28458;-83
2021/10/12 05:33:01;;;;;;;25.85;15.38;;;;;;;7.99;100.00;99012.51;4360794;79;28471;-83
2021/10/12 05:39:03;;;;;;;30.10;16.23;;;;;;;7.93;100.00;99011.52;4331263;79;28460;-84
2021/10/12 05:45:05;;;;;;;29.90;15.35;;;;;;;7.98;100.00;99013.05;4415475;79;28532;-82
2021/10/12 05:51:09;;;;;;;25.17;13.22;;;;;;;8.15;100.00;99021.38;4373641;79;28511;-81
2021/10/12 05:57:19;;;;;;;27.40;15.28;;;;;;;8.31;100.00;99013.34;4358927;79;28511;-84
2021/10/12 06:03:13;;;;;;;28.85;15.85;;;;;;;8.62;100.00;99014.38;4408315;78;28558;-82
2021/10/12 06:09:14;;;;;;;27.40;14.40;;;;;;;8.71;100.00;99000.17;4402186;79;28544;-84
2021/10/12 06:15:16;;;;;;;24.90;13.70;;;;;;;8.60;100.00;98996.88;4387796;79;28444;-83
2021/10/12 06:21:17;;;;;;;24.92;13.38;;;;;;;8.69;100.00;99008.96;4400656;79;28443;-82
2021/10/12 06:27:20;;;;;;;31.23;16.77;;;;;;;8.83;100.00;99008.33;4387525;79;28456;-83
2021/10/12 06:33:22;;;;;;;29.07;15.93;;;;;;;8.88;100.00;99000.43;4419488;78;28459;-84
2021/10/12 06:39:23;;;;;;;28.30;14.98;;;;;;;8.88;100.00;99012.50;4423753;78;28501;-82
2021/10/12 06:45:26;;;;;;;28.00;13.88;;;;;;;8.97;100.00;99003.66;4387743;79;28483;-82
2021/10/12 06:51:28;;;;;;;27.98;15.50;;;;;;;9.09;100.00;99006.95;4408807;79;28456;-85
2021/10/12 06:57:29;;;;;;;30.30;16.37;;;;;;;9.01;100.00;99014.77;4391719;78;28506;-83
2021/10/12 07:03:31;;;;;;;30.25;14.35;;;;;;;8.98;100.00;99017.87;4502147;77;28492;-84
2021/10/12 07:09:32;;;;;;;24.32;13.43;;;;;;;8.99;100.00;99020.34;4506282;78;28466;-85
2021/10/12 07:15:33;;;;;;;28.47;14.10;;;;;;;9.05;100.00;99015.95;4501917;77;28546;-83
2021/10/12 07:21:36;;;;;;;29.12;14.75;;;;;;;8.98;100.00;99014.69;4475130;77;28420;-85
2021/10/12 07:27:37;;;;;;;29.35;14.07;;;;;;;9.02;100.00;99020.44;4494135;77;28546;-84
2021/10/12 07:33:38;;;;;;;23.57;12.30;;;;;;;9.11;100.00;99027.16;4482003;77;28452;-81
2021/10/12 07:39:41;;;;;;;26.30;14.03;;;;;;;9.26;100.00;99020.59;4471406;78;28484;-83
2021/10/12 07:45:43;;;;;;;26.85;14.05;;;;;;;9.51;100.00;99011.64;4499292;77;28542;-81
2021/10/12 07:51:45;;;;;;;27.87;13.72;;;;;;;9.66;100.00;99008.57;4526830;77;28473;-82
2021/10/12 07:57:46;;;;;;;27.82;13.65;;;;;;;9.70;100.00;99009.78;4506197;77;28450;-84
2021/10/12 08:03:47;;;;;;;24.55;13.72;;;;;;;9.78;100.00;99009.98;4520844;77;28460;-79
2021/10/12 08:09:49;;;;;;;28.05;13.25;;;;;;;9.87;100.00;99008.09;4517134;76;28468;-79
2021/10/12 08:15:55;;;;;;;27.93;13.98;;;;;;;9.85;100.00;99004.01;4536695;76;28465;-85
2021/10/12 08:21:57;;;;;;;27.80;15.18;;;;;;;9.84;100.00;99004.52;4549058;76;28481;-79
2021/10/12 08:27:58;;;;;;;27.80;14.07;;;;;;;10.02;100.00;98996.94;4534442;76;28561;-86
2021/10/12 08:33:59;;;;;;;24.80;13.10;;;;;;;9.94;100.00;99002.62;4516050;76;28490;-86
2021/10/12 08:40:01;;;;;;;29.02;14.23;;;;;;;9.90;100.00;99004.13;4533360;77;28536;-79
2021/10/12 08:46:05;;;;;;;26.12;14.73;;;;;;;10.03;100.00;98987.83;4511880;76;28503;-77
2021/10/12 08:52:06;;;;;;;25.55;13.93;;;;;;;10.29;100.00;98991.18;4527472;76;28522;-84
2021/10/12 08:58:11;;;;;;;24.75;13.65;;;;;;;10.50;100.00;98983.65;4543428;76;28660;-84
2021/10/12 09:04:12;;;;;;;23.65;13.98;;;;;;;10.93;100.00;98992.96;4532770;76;28460;-78
2021/10/12 09:10:19;;;;;;;26.27;14.85;;;;;;;10.91;100.00;98982.42;4539173;76;28471;-83
2021/10/12 09:16:21;;;;;;;22.70;12.70;;;;;;;11.03;100.00;98983.77;4528245;76;28463;-82
2021/10/12 09:22:23;;;;;;;21.55;12.88;;;;;;;11.44;100.00;98977.91;4532600;76;28496;-83
2021/10/12 09:28:33;;;;;;;25.20;13.43;;;;;;;11.76;100.00;98977.97;4515821;76;28507;-82
2021/10/12 09:34:33;;;;;;;24.72;13.85;;;;;;;11.81;100.00;98973.20;4498673;76;28435;-79
2021/10/12 09:40:38;;;;;;;21.97;12.23;;;;;;;11.93;100.00;98965.08;4538213;76;28481;-81
2021/10/12 09:46:45;;;;;;;23.47;13.25;;;;;;;11.80;100.00;98966.19;4533997;76;28470;-82
2021/10/12 09:52:46;;;;;;;28.77;14.73;;;;;;;11.59;100.00;98957.72;4530809;76;28439;-83
2021/10/12 09:58:48;;;;;;;21.23;13.55;;;;;;;11.67;100.00;98953.84;4530192;76;28547;-79
2021/10/12 10:04:52;;;;;;;20.70;11.80;;;;;;;11.89;100.00;98950.47;4572172;76;28560;-80
2021/10/12 10:10:54;;;;;;;21.12;12.47;;;;;;;11.90;100.00;98938.63;4554419;76;28553;-78
2021/10/12 10:16:59;;;;;;;23.12;12.88;;;;;;;11.91;100.00;98930.29;4536778;76;28447;-78
2021/10/12 10:23:01;;;;;;;18.95;11.33;;;;;;;11.73;100.00;98924.59;4545567;76;28517;-82
2021/10/12 10:29:27;;;;;;;18.73;10.45;;;;;;;12.09;100.00;98917.17;4561832;76;28536;-78
2021/10/12 10:35:34;;;;;;;;;;;;;;;12.51;100.00;98900.30;4549848;76;28489;-78
2021/10/12 10:41:37;;;;;;;15.30;7.75;;;;;;;12.72;100.00;98897.89;4524720;76;20165;-76
2021/10/12 10:47:48;;;;;;;15.48;8.38;;;;;;;12.45;100.00;98885.92;4555865;76;28480;-79
2021/10/12 10:53:49;;;;;;;9.65;4.80;;;;;;;12.45;100.00;98871.09;4539429;76;28564;-79
2021/10/12 11:00:18;;;;;;;10.25;5.10;;;;;;;12.46;85.03;98881.33;4540993;76;28542;-80
2021/10/12 11:06:22;;;;;;;8.25;3.87;;;;;;;11.97;94.61;98866.02;4574584;76;28468;-85
2021/10/12 11:12:30;;;;;;;10.25;4.10;;;;;;;11.91;92.25;98885.84;4558947;76;28532;-82
2021/10/12 11:18:31;;;;;;;4.35;1.85;;;;;;;11.66;91.52;98866.84;4533220;78;28645;-79
2021/10/12 11:24:33;;;;;;;4.58;1.20;;;;;;;11.20;80.14;98860.08;4399544;79;28563;-80
2021/10/12 11:30:36;;;;;;;4.95;1.75;;;;;;;11.23;78.33;98850.72;4390894;79;28500;-82
2021/10/12 11:36:37;;;;;;;3.30;1.55;;;;;;;11.26;77.33;98849.72;4382905;79;28437;-80
2021/10/12 11:42:43;;;;;;;4.12;1.20;;;;;;;11.42;73.39;98840.56;4378888;80;28544;-80
2021/10/12 11:48:44;;;;;;;3.80;1.20;;;;;;;11.75;73.23;98834.93;4497200;77;28476;-81
2021/10/12 11:54:46;;;;;;;2.70;1.50;;;;;;;12.12;70.80;98834.48;4486556;76;28456;-76
2021/10/12 12:00:47;;;;;;;4.83;1.60;;;;;;;12.15;68.94;98820.23;4510879;77;28442;-77
2021/10/12 12:06:48;;;;;;;2.67;1.40;;;;;;;11.98;68.06;98813.77;4483102;78;28472;-76
2021/10/12 12:12:50;;;;;;;4.17;1.30;;;;;;;11.88;66.49;98802.03;4540585;76;28515;-80
2021/10/12 12:18:52;;;;;;;3.90;1.37;;;;;;;11.52;67.15;98801.70;4520500;76;28532;-77
2021/10/12 12:25:00;;;;;;;4.15;1.52;;;;;;;11.42;70.95;98791.59;4513061;76;28553;-79
2021/10/12 12:31:23;;;;;;;3.17;1.50;;;;;;;11.44;69.73;98802.93;4539708;76;28503;-79
2021/10/12 12:37:27;;;;;;;6.37;1.72;;;;;;;11.46;65.17;98795.97;4489157;77;28433;-76
2021/10/12 12:43:31;;;;;;;4.22;1.70;;;;;;;11.47;64.59;98775.23;4542682;76;28462;-79
2021/10/12 12:49:32;;;;;;;3.47;1.62;;;;;;;11.36;65.94;98776.41;4533267;76;28450;-76
2021/10/12 12:55:45;;;;;;;5.40;1.80;;;;;;;11.52;64.13;98781.52;4536586;76;28500;-78
2021/10/12 13:01:51;;;;;;;4.42;1.80;;;;;;;11.58;64.02;98764.91;4517003;76;28510;-80
2021/10/12 13:07:54;;;;;;;7.35;1.87;;;;;;;11.69;65.49;98759.98;4342568;80;28500;-76
2021/10/12 13:13:56;;;;;;;5.28;2.20;;;;;;;11.93;67.40;98761.68;4337933;80;28462;-77
2021/10/12 13:19:58;;;;;;;4.20;2.30;;;;;;;11.81;68.06;98765.28;4334843;80;28529;-78
2021/10/12 13:26:01;;;;;;;4.12;2.10;;;;;;;11.78;68.63;98760.91;4398743;79;28513;-78
2021/10/12 13:32:03;;;;;;;4.55;1.85;;;;;;;11.65;68.32;98758.02;4424649;79;28491;-78
2021/10/12 13:38:04;;;;;;;4.22;1.70;;;;;;;11.61;69.83;98756.37;4433617;80;28487;-79
2021/10/12 13:44:08;;;;;;;6.55;2.52;;;;;;;11.68;69.56;98758.89;4521916;76;28450;-77
2021/10/12 13:50:11;;;;;;;7.87;2.50;;;;;;;10.87;81.68;98774.97;4526400;77;28436;-80
2021/10/12 13:56:13;;;;;;;5.78;1.90;;;;;;;11.08;81.45;98751.15;4492064;77;28528;-82
2021/10/12 14:02:14;;;;;;;4.42;1.92;;;;;;;11.21;80.38;98749.23;4516223;78;28570;-83
2021/10/12 14:08:15;;;;;;;2.77;1.60;;;;;;;11.32;81.73;98734.06;4506520;77;28462;-82
2021/10/12 14:14:17;;;;;;;5.53;1.60;;;;;;;11.41;79.83;98723.19;4500675;77;28476;-83
2021/10/12 14:20:18;;;;;;;4.78;2.10;;;;;;;11.38;78.38;98725.83;4502528;77;28452;-81
2021/10/12 14:26:21;;;;;;;6.20;1.95;;;;;;;11.39;80.09;98713.20;4501846;78;28492;-81
2021/10/12 14:32:22;;;;;;;3.52;1.45;;;;;;;11.40;78.88;98712.14;4487307;77;28464;-83
2021/10/12 14:38:24;;;;;;;4.00;2.00;;;;;;;11.38;81.83;98705.64;4498098;77;28475;-82
2021/10/12 14:44:26;;;;;;;4.12;2.33;;;;;;;11.28;83.65;98709.51;4492830;77;28479;-83
2021/10/12 14:50:27;;;;;;;5.37;2.20;;;;;;;11.17;84.93;98700.47;4322946;81;28868;-80
2021/10/12 14:56:29;;;;;;;6.17;1.95;;;;;;;11.00;85.96;98694.52;4387854;79;28916;-83
2021/10/12 15:02:33;;;;;;;4.35;2.12;;;;;;;10.91;88.58;98697.31;4351323;79;28488;-83
2021/10/12 15:08:35;;;;;;;5.95;2.72;;;;;;;10.73;91.85;98695.66;4333078;79;28886;-85
2021/10/12 15:14:37;;;;;;;6.45;2.62;;;;;;;10.52;95.86;98695.81;4335937;79;28443;-83
2021/10/12 15:20:40;;;;;;;5.58;2.22;;;;;;;10.32;100.00;98698.34;4373556;79;28518;-83
2021/10/12 15:26:41;;;;;;;6.20;2.45;;;;;;;10.07;100.00;98697.29;4379596;80;28496;-83
2021/10/12 15:32:47;;;;;;;8.13;2.62;;;;;;;9.90;100.00;98692.63;4361059;80;28502;-84
2021/10/12 15:39:25;;;;;;;9.28;2.25;;;;;;;9.60;100.00;98688.20;4320384;81;28466;-87
2021/10/12 15:45:27;;;;;;;5.72;2.30;;;;;;;9.40;100.00;98691.23;4306867;82;28482;-87
2021/10/12 15:51:29;;;;;;;6.15;2.75;;;;;;;9.13;100.00;98688.45;4306131;82;28497;-86
2021/10/12 15:57:30;;;;;;;7.08;2.72;;;;;;;8.91;100.00;98691.67;4331279;79;28494;-88
2021/10/12 16:03:31;;;;;;;5.97;2.52;;;;;;;8.71;100.00;98685.23;4457365;78;28553;-87
2021/10/12 16:09:33;;;;;;;8.40;2.80;;;;;;;8.48;100.00;98681.39;4516628;77;28558;-90
2021/10/12 16:21:59;;;;;;;6.58;2.65;;;;;;;7.94;100.00;98682.53;4478485;77;28504;-89
2021/10/12 16:28:00;;;;;;;;;;;;;;;7.85;100.00;98682.52;4474728;78;28453;-87
2021/10/12 16:34:24;;;;;;;8.35;3.10;;;;;;;7.78;100.00;98684.77;4558467;76;20200;-87
2021/10/12 16:40:25;;;;;;;6.53;3.25;;;;;;;7.71;100.00;98693.38;4531323;78;28515;-89
2021/10/12 16:46:27;;;;;;;6.53;3.30;;;;;;;7.75;100.00;98698.57;4517485;76;28475;-90
2021/10/12 16:52:30;;;;;;;8.78;3.72;;;;;;;7.74;100.00;98706.30;4532333;76;28450;-86
2021/10/12 16:58:32;;;;;;;10.80;3.98;;;;;;;7.91;100.00;98705.73;4542814;76;28494;-85
2021/10/12 17:04:33;;;;;;;12.95;3.85;;;;;;;8.04;100.00;98702.11;4446471;78;28482;-85
2021/10/12 17:10:36;;;;;;;16.12;5.65;;;;;;;7.99;100.00;98698.77;4372662;80;28551;-86
2021/10/12 17:16:38;;;;;;;10.60;3.77;;;;;;;8.04;100.00;98694.08;4404541;79;28479;-86
2021/10/12 17:22:39;;;;;;;8.40;3.92;;;;;;;7.98;100.00;98698.47;4452722;78;28478;-84
2021/10/12 17:28:41;;;;;;;9.48;3.35;;;;;;;7.92;100.00;98700.17;4502017;77;28480;-85
2021/10/12 17:34:42;;;;;;;8.63;3.70;;;;;;;7.95;100.00;98697.05;4486467;77;28501;-85
2021/10/12 17:40:50;;;;;;;13.25;6.20;;;;;;;8.00;100.00;98697.72;4515699;77;28573;-84
2021/10/12 17:46:49;;;;;;;8.58;4.60;;;;;;;8.13;100.00;98695.42;4491658;77;28550;-85
2021/10/12 17:52:53;;;;;;;10.90;4.25;;;;;;;8.07;100.00;98694.97;4526286;78;28498;-87
2021/10/12 17:58:54;;;;;;;11.00;5.17;;;;;;;8.02;100.00;98695.63;4522010;77;28557;-86
2021/10/12 18:04:57;;;;;;;11.63;5.05;;;;;;;7.95;100.00;98694.38;4512109;77;28462;-89
2021/10/12 18:11:04;;;;;;;10.20;4.90;;;;;;;7.86;100.00;98694.36;4523723;76;28500;-86
2021/10/12 18:17:05;;;;;;;11.25;4.90;;;;;;;7.58;100.00;98694.84;4520569;77;28490;-83
2021/10/12 18:23:07;;;;;;;12.30;6.05;;;;;;;7.42;100.00;98702.38;4543033;76;28481;-86
2021/10/12 18:29:13;;;;;;;11.43;6.70;;;;;;;7.45;100.00;98699.28;4576418;76;28502;-93
2021/10/12 18:35:14;;;;;;;14.25;6.15;;;;;;;7.42;100.00;98712.27;4564645;76;28436;-87
2021/10/12 18:41:15;;;;;;;11.40;5.58;;;;;;;7.35;100.00;98706.44;4526387;76;28477;-80
2021/10/12 18:47:16;;;;;;;15.20;7.10;;;;;;;7.33;100.00;98714.38;4529884;76;28444;-82
2021/10/12 18:53:18;;;;;;;14.43;6.90;;;;;;;7.31;100.00;98723.14;4525729;76;28492;-79
2021/10/12 18:59:21;;;;;;;13.78;7.33;;;;;;;7.42;100.00;98721.63;4522578;76;28479;-82
2021/10/12 19:05:22;;;;;;;11.65;6.37;;;;;;;7.24;100.00;98721.35;4542358;76;28469;-81
2021/10/12 19:11:24;;;;;;;17.73;6.53;;;;;;;7.21;100.00;98719.09;4524870;76;28472;-77
2021/10/12 19:17:27;;;;;;;13.10;7.30;;;;;;;7.13;100.00;98715.34;4551996;76;28440;-81
2021/10/12 19:23:29;;;;;;;17.15;9.28;;;;;;;7.10;100.00;98715.28;4535391;76;28477;-78
2021/10/12 19:29:31;;;;;;;20.35;10.80;;;;;;;7.06;100.00;98718.06;4539431;76;28497;-78
2021/10/12 19:35:38;;;;;;;22.60;11.18;;;;;;;7.14;100.00;98721.02;4532696;76;28505;-79
2021/10/12 19:41:38;;;;;;;21.12;10.82;;;;;;;7.25;100.00;98729.67;4515378;76;28498;-80
2021/10/12 19:47:44;;;;;;;28.77;13.22;;;;;;;7.29;100.00;98726.55;4533819;76;28550;-77
2021/10/12 19:53:45;;;;;;;29.27;12.47;;;;;;;7.49;100.00;98721.03;4482803;77;28470;-80
2021/10/12 19:59:48;;;;;;;23.73;11.50;;;;;;;7.64;100.00;98724.72;4510988;77;28521;-78
2021/10/12 20:05:50;;;;;;;23.15;9.98;;;;;;;7.60;100.00;98720.85;4492296;77;28538;-77
2021/10/12 20:11:58;;;;;;;22.58;10.63;;;;;;;7.67;100.00;98717.07;4487903;77;28551;-81
2021/10/12 20:24:22;;;;;;;25.15;12.55;;;;;;;7.72;100.00;98712.40;4487911;77;28539;-78
2021/10/12 20:30:24;;;;;;;24.43;13.62;;;;;;;7.74;100.00;98705.50;4523455;77;28514;-79
2021/10/12 20:36:25;;;;;;;27.85;13.83;;;;;;;7.70;100.00;98697.59;4507410;77;28483;-82
2021/10/12 20:42:32;;;;;;;25.05;12.15;;;;;;;7.73;100.00;98695.30;4511819;77;28465;-81
2021/10/12 20:48:33;;;;;;;26.95;14.95;;;;;;;7.82;100.00;98698.53;4489379;78;28531;-80
2021/10/12 20:54:35;;;;;;;29.60;15.15;;;;;;;7.84;100.00;98700.97;4470650;77;28523;-80
2021/10/12 21:00:38;;;;;;;28.40;15.13;;;;;;;7.81;100.00;98719.11;4516919;77;28474;-75
2021/10/12 21:06:40;;;;;;;31.12;15.43;;;;;;;7.84;100.00;98712.50;4496667;77;28516;-80
2021/10/12 21:12:43;;;;;;;27.37;13.58;;;;;;;7.75;100.00;98715.97;4511694;76;28513;-80
2021/10/12 21:18:46;;;;;;;28.00;14.03;;;;;;;7.70;100.00;98710.98;4531781;77;28520;-81
2021/10/12 21:24:47;;;;;;;34.20;16.27;;;;;;;7.80;100.00;98708.11;4537766;76;28460;-80
2021/10/12 21:30:49;;;;;;;36.00;16.90;;;;;;;7.94;100.00;98710.14;4517204;76;28533;-76
2021/10/12 21:36:50;;;;;;;37.98;18.15;;;;;;;7.96;100.00;98719.27;4519767;76;28437;-80
2021/10/12 21:42:52;;;;;;;34.88;17.00;;;;;;;7.97;100.00;98726.79;4532779;76;28450;-80
2021/10/12 21:48:53;;;;;;;41.33;18.48;;;;;;;7.89;100.00;98730.58;4518928;76;28475;-78
2021/10/12 21:54:56;;;;;;;36.33;18.75;;;;;;;7.93;100.00;98735.27;4515778;76;28523;-78
2021/10/12 22:01:01;;;;;;;40.30;18.27;;;;;;;7.82;100.00;98729.31;4509888;76;28453;-80
2021/10/12 22:07:05;;;;;;;35.63;17.25;;;;;;;7.78;100.00;98727.59;4508607;76;28459;-79
2021/10/12 22:13:08;;;;;;;31.70;16.17;;;;;;;7.79;100.00;98735.08;4531533;76;28478;-80
2021/10/12 22:19:09;;;;;;;34.10;17.10;;;;;;;7.83;100.00;98732.28;4536317;76;28579;-80
2021/10/12 22:25:11;;;;;;;33.25;16.10;;;;;;;7.86;100.00;98741.70;4539867;76;28454;-79
2021/10/12 22:31:13;;;;;;;31.37;15.78;;;;;;;7.97;100.00;98738.33;4539693;76;28478;-77
2021/10/12 22:37:16;;;;;;;24.07;12.43;;;;;;;7.80;100.00;98740.73;4528537;76;28441;-76
2021/10/12 22:43:18;;;;;;;20.10;11.12;;;;;;;7.83;100.00;98741.65;4534929;76;28484;-75
2021/10/12 22:49:19;;;;;;;24.92;12.85;;;;;;;7.80;100.00;98748.25;4537968;76;28498;-76
2021/10/12 22:55:21;;;;;;;28.77;14.70;;;;;;;7.83;100.00;98746.17;4526605;76;28502;-76
2021/10/12 23:01:22;;;;;;;28.70;14.13;;;;;;;7.75;100.00;98747.28;4540257;76;28495;-76
2021/10/12 23:07:23;;;;;;;26.07;14.73;;;;;;;7.77;100.00;98747.36;4530049;76;28535;-75
2021/10/12 23:13:25;;;;;;;27.20;14.35;;;;;;;7.75;100.00;98742.73;4529519;76;28440;-77
2021/10/12 23:19:26;;;;;;;29.35;15.35;;;;;;;7.79;100.00;98741.77;4544377;76;28475;-78
2021/10/12 23:25:28;;;;;;;31.82;16.40;;;;;;;7.83;100.00;98744.33;4525845;76;28478;-78
2021/10/12 23:31:29;;;;;;;33.05;16.23;;;;;;;7.84;100.00;98742.45;4553421;76;28482;-78
2021/10/12 23:37:30;;;;;;;30.12;14.13;;;;;;;7.78;100.00;98740.14;4543455;76;28441;-78
2021/10/12 23:43:32;;;;;;;22.85;12.13;;;;;;;7.78;100.00;98738.80;4524454;76;28538;-78
2021/10/12 23:49:33;;;;;;;27.07;12.85;;;;;;;7.79;100.00;98738.59;4529895;76;28500;-78
2021/10/12 23:55:34;;;;;;;26.42;14.33;;;;;;;7.81;100.00;98743.73;4521214;76;28488;-78
